aviador You're here:

HEGN Decoded Metar

HURGHADA in EGYPT
Report Time2018-07-22 06:00:00
UTC Time2018-07-22 07:13:52
Flight Rules Old
Wind340° at 14 kt
W.Decomp.*RWY 34: 14.0 kt HW 1 kt LCW
W.Rank340° ranks 7
Current wind is above 340° avg. (11.8)
Visibility9999 m
Phenomena:N/A
Clouds:N/A
Expected CloudBase > 6,400 ft AGL from Temp-Dew spread
CeilingNone
Temp32°C (ISA +17)
Dew Point16°C (38% RH)
Heat Index31.9°C
AAT28.9°C
QNH1006 hPa
Density Alt2,474 ft
Elevation46 ft
Report Wrong Elevation
Raw Report
HEGN 220600Z 34014KT CAVOK 32/16 Q1006 NOSIG=

Extra information for HEGN:More info

Metar Taf Metar & Taf Last 4 Metars F.Rules Stats Wind Profile Meteogram Temp Stats Airport Information Weather charts Add Link Nearby VenuesMetar ALERT Operation Metar Decoded Social comments